createdAt,value
2017-10-22T00:01:49.645Z,19.60
2017-10-22T00:04:16.415Z,19.47
2017-10-22T00:06:42.397Z,19.70
2017-10-22T00:09:08.349Z,17.90
2017-10-22T00:11:34.290Z,18.27
2017-10-22T00:14:00.258Z,18.33
2017-10-22T00:16:26.197Z,17.90
2017-10-22T00:18:52.228Z,17.10
2017-10-22T00:21:18.245Z,16.07
2017-10-22T00:23:44.985Z,15.20
2017-10-22T00:26:10.926Z,11.60
2017-10-22T00:28:37.705Z,10.63
2017-10-22T00:31:03.669Z,9.33
2017-10-22T00:33:29.648Z,8.00
2017-10-22T00:35:56.334Z,7.10
2017-10-22T00:38:22.326Z,6.10
2017-10-22T00:40:48.416Z,6.50
2017-10-22T00:43:14.601Z,5.13
2017-10-22T00:45:42.029Z,5.27
2017-10-22T00:48:07.972Z,6.17
2017-10-22T00:50:33.945Z,6.80
2017-10-22T00:52:59.878Z,4.70
2017-10-22T00:55:25.860Z,5.20
2017-10-22T00:57:51.844Z,4.90
2017-10-22T01:00:17.842Z,4.40
2017-10-22T01:02:43.926Z,4.73
2017-10-22T01:05:09.874Z,4.70
2017-10-22T01:07:36.586Z,3.90
2017-10-22T01:10:02.550Z,4.60
2017-10-22T01:12:28.481Z,3.53
2017-10-22T01:14:54.513Z,4.77
2017-10-22T01:17:20.550Z,4.00
2017-10-22T01:19:46.602Z,4.27
2017-10-22T01:22:14.000Z,4.20
2017-10-22T01:24:39.945Z,4.50
2017-10-22T01:27:05.873Z,4.77
2017-10-22T01:29:31.833Z,5.20
2017-10-22T01:31:57.770Z,4.43
2017-10-22T01:34:23.794Z,4.53
2017-10-22T01:36:49.822Z,5.03
2017-10-22T01:39:15.973Z,5.00
2017-10-22T01:41:41.965Z,5.27
2017-10-22T01:44:07.889Z,4.83
2017-10-22T01:46:33.830Z,4.80
2017-10-22T01:48:59.792Z,4.43
2017-10-22T01:51:25.751Z,4.97
2017-10-22T01:53:51.697Z,4.90
2017-10-22T01:56:17.669Z,5.07
2017-10-22T01:58:43.664Z,5.50
2017-10-22T02:01:09.722Z,5.40
2017-10-22T02:03:35.757Z,4.97
2017-10-22T02:06:01.769Z,5.13
2017-10-22T02:08:27.758Z,4.50
2017-10-22T02:10:53.696Z,5.87
2017-10-22T02:13:20.360Z,5.20
2017-10-22T02:15:47.093Z,4.57
2017-10-22T02:18:13.036Z,5.83
2017-10-22T02:20:39.080Z,5.73
2017-10-22T02:23:05.844Z,5.00
2017-10-22T02:25:32.659Z,4.70
2017-10-22T02:27:58.616Z,4.30
2017-10-22T02:30:24.586Z,4.30
2017-10-22T02:32:50.527Z,4.23
2017-10-22T02:35:16.512Z,3.90
2017-10-22T02:37:42.524Z,3.30
2017-10-22T02:40:08.545Z,3.07
2017-10-22T02:42:34.660Z,3.10
2017-10-22T02:45:00.648Z,3.00
2017-10-22T02:47:26.620Z,3.77
2017-10-22T02:49:53.309Z,3.43
2017-10-22T02:52:19.282Z,3.23
2017-10-22T02:54:45.233Z,2.60
2017-10-22T02:57:12.024Z,2.83
2017-10-22T02:59:38.035Z,3.30
2017-10-22T03:02:04.860Z,3.07
2017-10-22T03:04:31.696Z,2.57
2017-10-22T03:06:57.742Z,3.60
2017-10-22T03:09:23.676Z,2.63
2017-10-22T03:11:49.662Z,2.77
2017-10-22T03:14:16.349Z,3.03
2017-10-22T03:16:42.285Z,2.97
2017-10-22T03:19:08.330Z,3.03
2017-10-22T03:21:34.491Z,2.67
2017-10-22T03:24:02.162Z,3.03
2017-10-22T03:26:28.117Z,2.90
2017-10-22T03:28:54.089Z,2.53
2017-10-22T03:31:20.025Z,2.40
2017-10-22T03:33:46.012Z,2.17
2017-10-22T03:36:11.993Z,2.07
2017-10-22T03:38:37.955Z,2.30
2017-10-22T03:41:04.008Z,2.80
2017-10-22T03:43:29.957Z,3.00
2017-10-22T03:45:55.893Z,2.67
2017-10-22T03:48:21.885Z,2.80
2017-10-22T03:50:47.873Z,2.80
2017-10-22T03:53:13.826Z,2.27
2017-10-22T03:55:40.594Z,2.30
2017-10-22T03:58:06.657Z,2.00
2017-10-22T04:00:32.777Z,2.67
2017-10-22T04:02:58.728Z,2.20
2017-10-22T04:05:24.737Z,2.07
2017-10-22T04:07:50.665Z,2.20
2017-10-22T04:10:17.380Z,2.67
2017-10-22T04:12:43.326Z,2.00
2017-10-22T04:15:09.315Z,1.77
2017-10-22T04:17:35.444Z,2.80
2017-10-22T04:20:01.482Z,2.30
2017-10-22T04:22:28.985Z,2.67
2017-10-22T04:24:54.929Z,2.40
2017-10-22T04:27:20.904Z,2.17
2017-10-22T04:29:47.608Z,1.97
2017-10-22T04:32:13.561Z,1.57
2017-10-22T04:34:39.570Z,1.90
2017-10-22T04:37:05.574Z,2.30
2017-10-22T04:39:31.617Z,1.97
2017-10-22T04:41:57.625Z,2.00
2017-10-22T04:44:24.313Z,2.60
2017-10-22T04:46:50.337Z,1.53
2017-10-22T04:49:16.278Z,2.63
2017-10-22T04:51:42.273Z,2.40
2017-10-22T04:54:08.286Z,1.50
2017-10-22T04:56:34.336Z,1.93
2017-10-22T04:59:00.290Z,1.63
2017-10-22T05:01:26.257Z,1.90
2017-10-22T05:03:52.600Z,3.77
2017-10-22T05:06:18.601Z,2.83
2017-10-22T05:08:45.279Z,2.07
2017-10-22T05:11:12.024Z,2.07
2017-10-22T05:13:38.739Z,2.33
2017-10-22T05:16:06.258Z,2.20
2017-10-22T05:18:33.035Z,2.10
2017-10-22T05:20:59.030Z,1.80
2017-10-22T05:23:24.969Z,2.50
2017-10-22T05:25:50.961Z,2.10
2017-10-22T05:28:16.892Z,1.40
2017-10-22T05:30:42.904Z,2.27
2017-10-22T05:33:08.929Z,2.20
2017-10-22T05:35:35.652Z,2.40
2017-10-22T05:38:02.576Z,2.40
2017-10-22T05:40:28.591Z,1.93
2017-10-22T05:42:54.541Z,2.30
2017-10-22T05:45:20.509Z,1.80
2017-10-22T05:47:46.477Z,1.70
2017-10-22T05:50:13.169Z,1.87
2017-10-22T05:52:39.311Z,1.90
2017-10-22T05:55:05.291Z,2.50
2017-10-22T05:57:31.371Z,2.43
2017-10-22T05:59:57.372Z,2.60
2017-10-22T06:02:23.316Z,2.17
2017-10-22T06:04:50.033Z,2.67
2017-10-22T06:07:15.977Z,2.73
2017-10-22T06:09:43.409Z,2.47
2017-10-22T06:12:09.537Z,2.77
2017-10-22T06:14:35.562Z,2.60
2017-10-22T06:17:01.525Z,2.90
2017-10-22T06:19:27.545Z,4.20
2017-10-22T06:21:53.489Z,4.20
2017-10-22T06:24:19.429Z,4.17
2017-10-22T06:26:45.425Z,3.43
2017-10-22T06:29:12.169Z,3.30
2017-10-22T06:31:38.160Z,3.63
2017-10-22T06:34:04.246Z,2.83
2017-10-22T06:36:30.955Z,3.70
2017-10-22T06:38:56.930Z,4.00
2017-10-22T06:41:22.860Z,4.13
2017-10-22T06:43:48.853Z,3.43
2017-10-22T06:46:14.787Z,4.33
2017-10-22T06:48:40.759Z,3.60
2017-10-22T06:51:08.260Z,3.00
2017-10-22T06:53:35.046Z,3.30
2017-10-22T06:56:01.474Z,3.03
2017-10-22T06:58:27.414Z,2.50
2017-10-22T07:00:53.384Z,2.50
2017-10-22T07:03:19.361Z,2.37
2017-10-22T07:05:46.069Z,2.87
2017-10-22T07:08:12.035Z,2.50
2017-10-22T07:10:38.063Z,2.27
2017-10-22T07:13:04.124Z,2.40
2017-10-22T07:15:30.839Z,2.40
2017-10-22T07:17:56.772Z,1.83
2017-10-22T07:20:22.753Z,2.50
2017-10-22T07:22:49.437Z,1.97
2017-10-22T07:25:15.377Z,2.20
2017-10-22T07:27:41.352Z,1.67
2017-10-22T07:30:08.841Z,2.20
2017-10-22T07:32:34.868Z,1.97
2017-10-22T07:35:01.402Z,1.50
2017-10-22T07:37:28.117Z,1.87
2017-10-22T07:39:54.042Z,2.50
2017-10-22T07:42:20.009Z,2.40
2017-10-22T07:44:45.949Z,2.30
2017-10-22T07:47:11.929Z,1.90
2017-10-22T07:49:38.718Z,2.50
2017-10-22T07:52:04.692Z,2.53
2017-10-22T07:54:30.664Z,2.50
2017-10-22T07:56:56.636Z,2.50
2017-10-22T07:59:22.609Z,2.30
2017-10-22T08:01:48.612Z,1.80
2017-10-22T08:04:14.581Z,2.10
2017-10-22T08:06:40.601Z,2.33
2017-10-22T08:09:06.589Z,2.10
2017-10-22T08:11:32.624Z,1.90
2017-10-22T08:13:58.569Z,2.80
2017-10-22T08:16:24.508Z,2.43
2017-10-22T08:18:50.481Z,2.33
2017-10-22T08:21:16.444Z,2.80
2017-10-22T08:23:43.160Z,2.03
2017-10-22T08:26:09.283Z,1.87
2017-10-22T08:28:35.292Z,1.83
2017-10-22T08:31:01.295Z,2.77
2017-10-22T08:33:27.292Z,2.40
2017-10-22T08:35:53.273Z,1.70
2017-10-22T08:38:20.021Z,2.20
2017-10-22T08:40:45.969Z,2.17
2017-10-22T08:43:12.696Z,2.20
2017-10-22T08:45:38.702Z,1.97
2017-10-22T08:48:05.105Z,3.43
2017-10-22T08:50:31.983Z,1.70
2017-10-22T08:52:57.929Z,1.90
2017-10-22T08:55:23.860Z,2.20
2017-10-22T08:57:49.841Z,2.10
2017-10-22T09:00:15.773Z,1.80
2017-10-22T09:02:41.775Z,2.13
2017-10-22T09:05:07.812Z,2.00
2017-10-22T09:07:33.851Z,1.67
2017-10-22T09:09:59.797Z,2.27
2017-10-22T09:12:25.769Z,2.50
2017-10-22T09:14:51.709Z,1.87
2017-10-22T09:17:17.664Z,1.60
2017-10-22T09:19:44.377Z,2.07
2017-10-22T09:22:10.377Z,4.03
2017-10-22T09:24:36.384Z,2.03
2017-10-22T09:27:03.146Z,2.00
2017-10-22T09:29:29.122Z,2.43
2017-10-22T09:31:55.092Z,2.00
2017-10-22T09:34:21.056Z,2.27
2017-10-22T09:36:46.985Z,2.27
2017-10-22T09:39:13.681Z,2.30
2017-10-22T09:41:39.711Z,2.03
2017-10-22T09:44:05.803Z,2.17
2017-10-22T09:46:32.615Z,1.97
2017-10-22T09:48:58.554Z,2.07
2017-10-22T09:51:24.489Z,2.33
2017-10-22T09:53:50.456Z,2.37
2017-10-22T09:56:16.401Z,1.57
2017-10-22T09:58:43.077Z,2.30
2017-10-22T10:01:09.129Z,1.97
2017-10-22T10:03:35.209Z,1.63
2017-10-22T10:06:01.156Z,1.43
2017-10-22T10:08:27.877Z,1.80
2017-10-22T10:10:53.845Z,1.77
2017-10-22T10:13:20.585Z,1.77
2017-10-22T10:15:47.257Z,1.80
2017-10-22T10:18:13.984Z,1.57
2017-10-22T10:20:39.965Z,1.77
2017-10-22T10:23:05.994Z,1.57
2017-10-22T10:25:32.008Z,2.07
2017-10-22T10:28:05.615Z,2.07
2017-10-22T10:30:31.662Z,2.00
2017-10-22T10:32:58.364Z,2.13
2017-10-22T10:35:24.321Z,2.60
2017-10-22T10:37:50.300Z,2.17
2017-10-22T10:40:16.977Z,2.27
2017-10-22T10:42:42.945Z,2.20
2017-10-22T10:45:08.993Z,2.30
2017-10-22T10:47:35.019Z,1.97
2017-10-22T10:50:01.892Z,1.87
2017-10-22T10:52:27.862Z,1.90
2017-10-22T10:54:54.568Z,2.03
2017-10-22T10:57:20.504Z,2.00
2017-10-22T10:59:46.489Z,1.80
2017-10-22T11:02:12.433Z,1.83
2017-10-22T11:04:38.456Z,2.13
2017-10-22T11:07:05.264Z,1.37
2017-10-22T11:09:31.209Z,2.00
2017-10-22T11:11:58.996Z,1.90
2017-10-22T11:14:24.964Z,2.10
2017-10-22T11:16:50.905Z,1.90
2017-10-22T11:19:16.872Z,2.23
2017-10-22T11:21:42.877Z,1.90
2017-10-22T11:24:08.867Z,2.20
2017-10-22T11:26:35.617Z,1.73
2017-10-22T11:29:02.602Z,1.50
2017-10-22T11:31:29.285Z,1.43
2017-10-22T11:33:55.265Z,1.97
2017-10-22T11:36:21.225Z,1.80
2017-10-22T11:38:47.952Z,1.93
2017-10-22T11:41:13.891Z,1.77
2017-10-22T11:43:39.992Z,1.90
2017-10-22T11:46:05.992Z,2.03
2017-10-22T11:48:33.083Z,2.20
2017-10-22T11:50:59.053Z,2.00
2017-10-22T11:53:25.031Z,1.80
2017-10-22T11:55:58.853Z,1.53
2017-10-22T11:58:25.569Z,1.93
2017-10-22T12:00:51.564Z,1.70
2017-10-22T12:03:17.800Z,2.17
2017-10-22T12:05:43.805Z,1.83
2017-10-22T12:08:09.817Z,1.93
2017-10-22T12:10:35.827Z,1.70
2017-10-22T12:13:02.283Z,2.27
2017-10-22T12:15:28.252Z,1.83
2017-10-22T12:17:54.193Z,1.73
2017-10-22T12:20:20.925Z,1.50
2017-10-22T12:22:46.864Z,1.97
2017-10-22T12:25:12.828Z,1.37
2017-10-22T12:27:39.604Z,2.00
2017-10-22T12:30:05.736Z,2.17
2017-10-22T12:32:31.902Z,1.57
2017-10-22T12:34:57.857Z,1.50
2017-10-22T12:37:23.837Z,1.87
2017-10-22T12:39:50.530Z,1.50
2017-10-22T12:42:16.512Z,1.60
2017-10-22T12:44:42.529Z,2.13
2017-10-22T12:47:08.570Z,2.10
2017-10-22T12:49:34.593Z,2.30
2017-10-22T12:52:00.540Z,1.60
2017-10-22T12:54:26.521Z,2.33
2017-10-22T12:56:52.465Z,1.80
2017-10-22T12:59:18.409Z,2.23
2017-10-22T13:01:44.400Z,2.20
2017-10-22T13:04:10.521Z,2.37
2017-10-22T13:06:36.520Z,1.70
2017-10-22T13:09:02.867Z,2.03
2017-10-22T13:11:28.866Z,1.50
2017-10-22T13:13:55.613Z,2.03
2017-10-22T13:16:21.549Z,1.97
2017-10-22T13:18:47.481Z,2.00
2017-10-22T13:21:13.501Z,1.97
2017-10-22T13:23:39.702Z,1.90
2017-10-22T13:26:05.823Z,2.10
2017-10-22T13:28:32.009Z,1.93
2017-10-22T13:30:58.002Z,1.40
2017-10-22T13:33:23.945Z,1.53
2017-10-22T13:35:49.885Z,1.80
2017-10-22T13:38:15.857Z,1.90
2017-10-22T13:40:41.933Z,2.10
2017-10-22T13:43:08.727Z,1.87
2017-10-22T13:45:34.847Z,1.70
2017-10-22T13:48:00.845Z,1.83
2017-10-22T13:50:27.548Z,6.13
2017-10-22T13:52:53.491Z,3.33
2017-10-22T13:55:19.460Z,1.53
2017-10-22T13:57:45.412Z,2.73
2017-10-22T14:00:12.213Z,2.10
2017-10-22T14:02:38.250Z,2.00
2017-10-22T14:05:04.388Z,2.20
2017-10-22T14:07:30.405Z,5.57
2017-10-22T14:09:56.362Z,1.80
2017-10-22T14:12:22.328Z,2.40
2017-10-22T14:14:48.316Z,3.93
2017-10-22T14:17:16.048Z,2.20
2017-10-22T14:19:42.051Z,1.63
2017-10-22T14:22:08.381Z,2.53
2017-10-22T14:24:34.818Z,2.60
2017-10-22T14:27:02.697Z,2.60
2017-10-22T14:29:28.745Z,2.80
2017-10-22T14:31:54.714Z,2.07
2017-10-22T14:34:20.653Z,7.30
2017-10-22T14:36:46.657Z,4.90
2017-10-22T14:39:12.609Z,1.63
2017-10-22T14:41:38.599Z,2.37
2017-10-22T14:44:05.313Z,1.70
2017-10-22T14:46:31.565Z,2.03
2017-10-22T14:48:57.548Z,2.73
2017-10-22T14:51:23.494Z,2.70
2017-10-22T14:53:49.489Z,2.30
2017-10-22T14:56:15.424Z,1.97
2017-10-22T14:58:42.264Z,5.80
2017-10-22T15:01:08.366Z,3.73
2017-10-22T15:03:34.427Z,2.90
2017-10-22T15:06:01.189Z,3.60
2017-10-22T15:08:27.137Z,2.43
2017-10-22T15:10:53.147Z,3.00
2017-10-22T15:13:19.124Z,2.00
2017-10-22T15:15:45.857Z,6.60
2017-10-22T15:18:11.877Z,2.37
2017-10-22T15:20:37.907Z,2.20
2017-10-22T15:23:04.164Z,6.13
2017-10-22T15:25:30.896Z,9.93
2017-10-22T15:27:56.881Z,2.70
2017-10-22T15:30:23.573Z,4.90
2017-10-22T15:32:50.257Z,15.87
2017-10-22T15:35:16.228Z,38.93
2017-10-22T15:37:43.445Z,4.70
2017-10-22T15:40:09.495Z,3.47
2017-10-22T15:42:35.584Z,3.00
2017-10-22T15:45:02.158Z,2.27
2017-10-22T15:47:28.132Z,3.37
2017-10-22T15:49:54.104Z,3.00
2017-10-22T15:52:20.085Z,4.60
2017-10-22T15:54:46.020Z,2.73
2017-10-22T15:57:12.245Z,3.57
2017-10-22T15:59:38.262Z,3.30
2017-10-22T16:02:04.297Z,2.60
2017-10-22T16:04:30.260Z,2.40
2017-10-22T16:06:56.236Z,2.50
2017-10-22T16:09:22.197Z,1.87
2017-10-22T16:11:48.177Z,2.20
2017-10-22T16:14:14.169Z,2.80
2017-10-22T16:16:40.165Z,3.77
2017-10-22T16:19:06.164Z,2.13
2017-10-22T16:21:32.204Z,2.40
2017-10-22T16:23:58.153Z,2.03
2017-10-22T16:26:24.128Z,2.50
2017-10-22T16:28:50.837Z,5.00
2017-10-22T16:31:16.772Z,4.23
2017-10-22T16:33:42.765Z,2.90
2017-10-22T16:36:09.632Z,2.80
2017-10-22T16:38:35.624Z,3.27
2017-10-22T16:41:02.681Z,2.60
2017-10-22T16:43:28.631Z,2.30
2017-10-22T16:45:54.574Z,2.60
2017-10-22T16:48:20.577Z,6.30
2017-10-22T16:50:46.521Z,5.90
2017-10-22T16:53:12.532Z,3.10
2017-10-22T16:55:38.522Z,3.13
2017-10-22T16:58:05.257Z,2.40
2017-10-22T17:00:31.206Z,3.00
2017-10-22T17:02:57.896Z,2.77
2017-10-22T17:05:23.868Z,4.10
2017-10-22T17:07:49.840Z,2.90
2017-10-22T17:10:16.557Z,2.93
2017-10-22T17:12:42.497Z,3.13
2017-10-22T17:15:08.479Z,6.67
2017-10-22T17:17:34.770Z,8.40
2017-10-22T17:20:00.772Z,8.37
2017-10-22T17:22:26.709Z,7.07
2017-10-22T17:24:52.660Z,3.90
2017-10-22T17:27:18.633Z,7.27
2017-10-22T17:29:44.612Z,3.60
2017-10-22T17:32:10.544Z,3.10
2017-10-22T17:34:36.505Z,3.07
2017-10-22T17:37:02.849Z,4.20
2017-10-22T17:39:28.796Z,5.30
2017-10-22T17:41:54.764Z,4.03
2017-10-22T17:44:21.468Z,3.17
2017-10-22T17:46:47.460Z,4.03
2017-10-22T17:49:14.137Z,2.70
2017-10-22T17:51:40.081Z,2.90
2017-10-22T17:54:06.057Z,6.37
2017-10-22T17:56:32.053Z,25.77
2017-10-22T17:58:58.034Z,4.80
2017-10-22T18:01:25.470Z,3.40
2017-10-22T18:03:51.458Z,4.30
2017-10-22T18:06:18.141Z,3.20
2017-10-22T18:08:44.084Z,3.10
2017-10-22T18:11:10.097Z,3.73
2017-10-22T18:13:36.051Z,3.90
2017-10-22T18:16:02.132Z,2.80
2017-10-22T18:18:28.118Z,3.23
2017-10-22T18:20:54.052Z,2.57
2017-10-22T18:23:19.996Z,3.20
2017-10-22T18:25:45.969Z,3.00
2017-10-22T18:28:11.917Z,2.33
2017-10-22T18:30:37.898Z,3.20
2017-10-22T18:33:03.870Z,3.40
2017-10-22T18:35:30.605Z,2.83
2017-10-22T18:37:56.621Z,3.30
2017-10-22T18:40:23.682Z,3.03
2017-10-22T18:42:49.697Z,2.40
2017-10-22T18:45:16.381Z,2.83
2017-10-22T18:47:42.376Z,2.70
2017-10-22T18:50:09.074Z,3.10
2017-10-22T18:52:35.030Z,2.93
2017-10-22T18:55:01.000Z,3.63
2017-10-22T18:57:27.672Z,2.93
2017-10-22T18:59:53.647Z,3.33
2017-10-22T19:02:19.585Z,3.80
2017-10-22T19:04:45.581Z,3.00
2017-10-22T19:07:12.322Z,3.00
2017-10-22T19:09:39.000Z,2.93
2017-10-22T19:12:04.945Z,3.93
2017-10-22T19:14:30.925Z,3.37
2017-10-22T19:16:56.893Z,3.63
2017-10-22T19:19:22.839Z,3.77
2017-10-22T19:21:48.822Z,3.50
2017-10-22T19:24:14.797Z,3.70
2017-10-22T19:26:40.773Z,3.80
2017-10-22T19:29:06.725Z,2.60
2017-10-22T19:31:32.738Z,2.87
2017-10-22T19:33:58.713Z,2.50
2017-10-22T19:36:24.652Z,3.10
2017-10-22T19:38:51.365Z,4.23
2017-10-22T19:41:17.313Z,3.17
2017-10-22T19:43:43.289Z,4.33
2017-10-22T19:46:09.978Z,3.57
2017-10-22T19:48:35.924Z,4.23
2017-10-22T19:51:01.965Z,3.00
2017-10-22T19:53:27.961Z,2.93
2017-10-22T19:55:53.919Z,3.30
2017-10-22T19:58:19.854Z,2.70
2017-10-22T20:00:45.825Z,3.90
2017-10-22T20:03:11.798Z,3.20
2017-10-22T20:05:37.829Z,2.80
2017-10-22T20:08:03.976Z,3.17
2017-10-22T20:10:29.932Z,2.30
2017-10-22T20:12:55.876Z,2.33
2017-10-22T20:15:21.872Z,1.80
2017-10-22T20:17:48.649Z,1.43
2017-10-22T20:20:14.597Z,1.60
2017-10-22T20:22:40.536Z,1.10
2017-10-22T20:25:06.515Z,1.50
2017-10-22T20:27:33.294Z,1.57
2017-10-22T20:29:59.320Z,1.60
2017-10-22T20:32:25.992Z,3.37
2017-10-22T20:34:52.005Z,1.50
2017-10-22T20:37:18.721Z,1.20
2017-10-22T20:39:44.713Z,1.20
2017-10-22T20:42:10.646Z,1.60
2017-10-22T20:44:37.337Z,1.00
2017-10-22T20:47:03.353Z,1.47
2017-10-22T20:49:29.304Z,1.63
2017-10-22T20:51:55.289Z,1.70
2017-10-22T20:54:21.972Z,1.80
2017-10-22T20:56:47.908Z,1.47
2017-10-22T20:59:13.872Z,1.70
2017-10-22T21:01:39.835Z,1.70
2017-10-22T21:04:05.833Z,1.67
2017-10-22T21:06:31.849Z,1.90
2017-10-22T21:08:57.825Z,2.43
2017-10-22T21:11:23.765Z,1.60
2017-10-22T21:13:49.732Z,2.27
2017-10-22T21:16:16.453Z,1.70
2017-10-22T21:18:42.400Z,1.70
2017-10-22T21:21:08.351Z,1.70
2017-10-22T21:23:35.157Z,2.20
2017-10-22T21:26:01.101Z,1.67
2017-10-22T21:28:27.041Z,1.80
2017-10-22T21:30:53.009Z,2.00
2017-10-22T21:33:19.731Z,1.70
2017-10-22T21:35:45.710Z,1.60
2017-10-22T21:38:12.406Z,1.80
2017-10-22T21:40:38.454Z,1.90
2017-10-22T21:43:04.488Z,2.07
2017-10-22T21:45:30.477Z,2.07
2017-10-22T21:47:57.192Z,2.23
2017-10-22T21:50:23.161Z,1.97
2017-10-22T21:52:49.852Z,2.20
2017-10-22T21:55:15.816Z,2.00
2017-10-22T21:57:41.781Z,1.90
2017-10-22T22:00:08.534Z,1.57
2017-10-22T22:02:35.257Z,2.23
2017-10-22T22:05:01.995Z,1.40
2017-10-22T22:07:27.997Z,2.13
2017-10-22T22:09:53.937Z,1.33
2017-10-22T22:12:19.909Z,1.43
2017-10-22T22:14:45.841Z,1.50
2017-10-22T22:17:11.797Z,1.63
2017-10-22T22:19:37.796Z,1.43
2017-10-22T22:22:03.808Z,1.30
2017-10-22T22:24:29.756Z,1.33
2017-10-22T22:26:55.720Z,1.40
2017-10-22T22:29:21.689Z,1.50
2017-10-22T22:31:48.405Z,1.60
2017-10-22T22:34:14.385Z,1.30
2017-10-22T22:36:41.264Z,1.50
2017-10-22T22:39:07.705Z,1.20
2017-10-22T22:41:33.811Z,1.40
2017-10-22T22:44:00.519Z,1.10
2017-10-22T22:46:26.462Z,0.90
2017-10-22T22:48:52.437Z,1.10
2017-10-22T22:51:18.378Z,1.30
2017-10-22T22:53:45.101Z,1.50
2017-10-22T22:56:11.078Z,1.27
2017-10-22T22:58:37.053Z,1.20
2017-10-22T23:01:03.096Z,1.30
2017-10-22T23:03:29.084Z,1.40
2017-10-22T23:05:55.777Z,1.90
2017-10-22T23:08:21.758Z,1.10
2017-10-22T23:10:47.697Z,1.40
2017-10-22T23:13:14.409Z,1.40
2017-10-22T23:15:40.405Z,1.40
2017-10-22T23:18:07.207Z,1.97
2017-10-22T23:20:33.214Z,1.47
2017-10-22T23:22:59.160Z,1.47
2017-10-22T23:25:25.133Z,1.40
2017-10-22T23:27:51.077Z,1.63
2017-10-22T23:30:17.041Z,1.63
2017-10-22T23:32:43.721Z,1.80
2017-10-22T23:35:09.729Z,1.83
2017-10-22T23:37:36.474Z,2.10
2017-10-22T23:40:03.201Z,2.17
2017-10-22T23:42:29.181Z,2.00
2017-10-22T23:44:55.125Z,1.80
2017-10-22T23:47:21.093Z,2.30
2017-10-22T23:49:47.039Z,2.27
2017-10-22T23:52:13.039Z,2.13
2017-10-22T23:54:39.008Z,2.63
2017-10-22T23:57:05.029Z,2.67
2017-10-22T23:59:30.973Z,2.60
